sensor_id;sensor_type;location;lat;lon;timestamp;noise_LAeq;noise_LA_min;noise_LA_max;noise_LA01;noise_LA95
69615;Laerm;56821;52.486;4.680;2023-04-03T00:00:02;34.31;31.06;39.50;;
69615;Laerm;56821;52.486;4.680;2023-04-03T00:00:13;35.45;32.47;38.42;;
69615;Laerm;56821;52.486;4.680;2023-04-03T00:00:23;34.00;31.97;35.94;;
69615;Laerm;56821;52.486;4.680;2023-04-03T00:00:33;39.06;32.47;57.73;;
69615;Laerm;56821;52.486;4.680;2023-04-03T00:00:43;36.56;33.47;38.88;;
69615;Laerm;56821;52.486;4.680;2023-04-03T00:00:55;36.09;30.91;41.86;;
69615;Laerm;56821;52.486;4.680;2023-04-03T00:01:05;32.16;30.06;35.48;;
69615;Laerm;56821;52.486;4.680;2023-04-03T00:01:16;31.52;29.14;33.53;;
69615;Laerm;56821;52.486;4.680;2023-04-03T00:01:26;32.12;29.75;34.91;;
69615;Laerm;56821;52.486;4.680;2023-04-03T00:01:36;32.33;30.29;34.70;;
69615;Laerm;56821;52.486;4.680;2023-04-03T00:01:48;33.62;31.53;36.83;;
69615;Laerm;56821;52.486;4.680;2023-04-03T00:01:58;33.72;31.50;36.26;;
69615;Laerm;56821;52.486;4.680;2023-04-03T00:02:08;33.60;31.82;35.75;;
69615;Laerm;56821;52.486;4.680;2023-04-03T00:02:18;34.50;32.40;36.33;;
69615;Laerm;56821;52.486;4.680;2023-04-03T00:02:29;35.61;33.37;39.07;;
69615;Laerm;56821;52.486;4.680;2023-04-03T00:02:39;34.94;32.47;37.34;;
69615;Laerm;56821;52.486;4.680;2023-04-03T00:02:50;33.12;30.80;35.71;;
69615;Laerm;56821;52.486;4.680;2023-04-03T00:03:00;32.52;30.88;34.71;;
69615;Laerm;56821;52.486;4.680;2023-04-03T00:03:11;32.97;31.19;35.12;;
69615;Laerm;56821;52.486;4.680;2023-04-03T00:03:21;34.02;32.09;35.65;;
69615;Laerm;56821;52.486;4.680;2023-04-03T00:03:31;35.82;32.54;38.68;;
69615;Laerm;56821;52.486;4.680;2023-04-03T00:03:41;36.21;34.02;38.52;;
69615;Laerm;56821;52.486;4.680;2023-04-03T00:03:52;37.91;34.95;40.94;;
69615;Laerm;56821;52.486;4.680;2023-04-03T00:04:02;36.56;32.31;40.20;;
69615;Laerm;56821;52.486;4.680;2023-04-03T00:04:12;36.69;32.77;40.92;;
69615;Laerm;56821;52.486;4.680;2023-04-03T00:04:22;36.43;32.22;40.52;;
69615;Laerm;56821;52.486;4.680;2023-04-03T00:04:33;33.80;31.16;37.81;;
69615;Laerm;56821;52.486;4.680;2023-04-03T00:04:43;32.86;31.06;35.03;;
69615;Laerm;56821;52.486;4.680;2023-04-03T00:04:53;33.97;31.00;38.04;;
69615;Laerm;56821;52.486;4.680;2023-04-03T00:05:03;33.76;31.02;36.84;;
69615;Laerm;56821;52.486;4.680;2023-04-03T00:05:14;35.82;33.11;38.95;;
69615;Laerm;56821;52.486;4.680;2023-04-03T00:05:25;36.29;33.20;39.34;;
69615;Laerm;56821;52.486;4.680;2023-04-03T00:05:35;35.04;31.85;40.08;;
69615;Laerm;56821;52.486;4.680;2023-04-03T00:05:45;34.92;32.15;38.00;;
69615;Laerm;56821;52.486;4.680;2023-04-03T00:05:56;34.39;32.21;37.15;;
69615;Laerm;56821;52.486;4.680;2023-04-03T00:06:06;35.24;33.21;38.80;;
69615;Laerm;56821;52.486;4.680;2023-04-03T00:06:18;36.44;33.12;40.30;;
69615;Laerm;56821;52.486;4.680;2023-04-03T00:06:28;33.91;31.58;36.41;;
69615;Laerm;56821;52.486;4.680;2023-04-03T00:06:39;34.67;32.07;40.02;;
69615;Laerm;56821;52.486;4.680;2023-04-03T00:06:49;32.53;30.05;36.36;;
69615;Laerm;56821;52.486;4.680;2023-04-03T00:06:59;31.68;29.76;33.63;;
69615;Laerm;56821;52.486;4.680;2023-04-03T00:07:10;30.74;29.31;32.46;;
69615;Laerm;56821;52.486;4.680;2023-04-03T00:07:20;31.57;29.53;34.84;;
69615;Laerm;56821;52.486;4.680;2023-04-03T00:07:30;32.50;30.13;35.59;;
69615;Laerm;56821;52.486;4.680;2023-04-03T00:07:41;33.02;30.06;35.13;;
69615;Laerm;56821;52.486;4.680;2023-04-03T00:07:51;31.25;29.68;32.86;;
69615;Laerm;56821;52.486;4.680;2023-04-03T00:08:01;32.52;30.41;34.27;;
69615;Laerm;56821;52.486;4.680;2023-04-03T00:08:17;34.67;31.49;37.92;;
69615;Laerm;56821;52.486;4.680;2023-04-03T00:08:27;33.82;31.70;36.82;;
69615;Laerm;56821;52.486;4.680;2023-04-03T00:08:40;32.92;31.12;35.47;;
69615;Laerm;56821;52.486;4.680;2023-04-03T00:08:51;32.35;30.40;34.41;;
69615;Laerm;56821;52.486;4.680;2023-04-03T00:09:01;32.89;30.86;36.64;;
69615;Laerm;56821;52.486;4.680;2023-04-03T00:09:11;32.76;30.30;35.61;;
69615;Laerm;56821;52.486;4.680;2023-04-03T00:09:21;32.15;30.22;36.04;;
69615;Laerm;56821;52.486;4.680;2023-04-03T00:09:31;32.67;30.71;36.14;;
69615;Laerm;56821;52.486;4.680;2023-04-03T00:09:42;32.84;30.79;35.14;;
69615;Laerm;56821;52.486;4.680;2023-04-03T00:09:52;32.58;30.48;35.85;;
69615;Laerm;56821;52.486;4.680;2023-04-03T00:10:02;32.26;30.28;34.59;;
69615;Laerm;56821;52.486;4.680;2023-04-03T00:10:13;32.90;30.96;35.44;;
69615;Laerm;56821;52.486;4.680;2023-04-03T00:10:23;32.58;30.26;35.68;;
69615;Laerm;56821;52.486;4.680;2023-04-03T00:10:34;31.46;29.62;33.00;;
69615;Laerm;56821;52.486;4.680;2023-04-03T00:10:44;31.68;29.64;34.42;;
69615;Laerm;56821;52.486;4.680;2023-04-03T00:10:54;31.74;29.85;33.46;;
69615;Laerm;56821;52.486;4.680;2023-04-03T00:11:05;31.72;29.57;34.09;;
69615;Laerm;56821;52.486;4.680;2023-04-03T00:11:15;32.22;29.85;39.04;;
69615;Laerm;56821;52.486;4.680;2023-04-03T00:11:26;33.57;30.39;37.63;;
69615;Laerm;56821;52.486;4.680;2023-04-03T00:11:36;32.35;29.94;34.99;;
69615;Laerm;56821;52.486;4.680;2023-04-03T00:11:46;33.38;30.42;36.64;;
69615;Laerm;56821;52.486;4.680;2023-04-03T00:11:56;32.44;30.09;34.79;;
69615;Laerm;56821;52.486;4.680;2023-04-03T00:12:06;31.23;29.61;32.94;;
69615;Laerm;56821;52.486;4.680;2023-04-03T00:12:16;31.58;29.75;34.18;;
69615;Laerm;56821;52.486;4.680;2023-04-03T00:12:27;32.90;30.72;35.79;;
69615;Laerm;56821;52.486;4.680;2023-04-03T00:12:37;35.47;33.23;38.81;;
69615;Laerm;56821;52.486;4.680;2023-04-03T00:12:47;35.81;33.26;40.02;;
69615;Laerm;56821;52.486;4.680;2023-04-03T00:12:57;34.92;32.38;37.22;;
69615;Laerm;56821;52.486;4.680;2023-04-03T00:13:08;34.01;31.78;36.58;;
69615;Laerm;56821;52.486;4.680;2023-04-03T00:13:18;33.21;30.99;38.74;;
69615;Laerm;56821;52.486;4.680;2023-04-03T00:13:28;32.99;30.46;36.41;;
69615;Laerm;56821;52.486;4.680;2023-04-03T00:13:39;31.53;29.68;33.44;;
69615;Laerm;56821;52.486;4.680;2023-04-03T00:13:49;33.48;31.48;35.18;;
69615;Laerm;56821;52.486;4.680;2023-04-03T00:13:59;33.17;30.85;36.05;;
69615;Laerm;56821;52.486;4.680;2023-04-03T00:14:10;32.79;30.81;34.32;;
69615;Laerm;56821;52.486;4.680;2023-04-03T00:14:20;33.03;31.07;35.99;;
69615;Laerm;56821;52.486;4.680;2023-04-03T00:14:30;33.04;31.36;34.62;;
69615;Laerm;56821;52.486;4.680;2023-04-03T00:14:41;32.59;30.65;34.73;;
69615;Laerm;56821;52.486;4.680;2023-04-03T00:14:51;33.21;31.15;35.56;;
69615;Laerm;56821;52.486;4.680;2023-04-03T00:15:01;33.19;30.60;36.03;;
69615;Laerm;56821;52.486;4.680;2023-04-03T00:15:12;34.86;32.25;37.17;;
69615;Laerm;56821;52.486;4.680;2023-04-03T00:15:22;35.68;33.77;37.63;;
69615;Laerm;56821;52.486;4.680;2023-04-03T00:15:32;36.13;32.70;38.35;;
69615;Laerm;56821;52.486;4.680;2023-04-03T00:15:43;33.89;31.58;36.34;;
69615;Laerm;56821;52.486;4.680;2023-04-03T00:15:53;33.73;31.71;36.70;;
69615;Laerm;56821;52.486;4.680;2023-04-03T00:16:04;33.86;31.47;36.75;;
69615;Laerm;56821;52.486;4.680;2023-04-03T00:16:14;33.55;31.24;36.05;;
69615;Laerm;56821;52.486;4.680;2023-04-03T00:16:25;32.25;30.56;33.76;;
69615;Laerm;56821;52.486;4.680;2023-04-03T00:16:35;33.47;31.46;35.93;;
69615;Laerm;56821;52.486;4.680;2023-04-03T00:16:45;33.01;30.48;40.22;;
69615;Laerm;56821;52.486;4.680;2023-04-03T00:16:55;32.42;30.39;36.26;;
69615;Laerm;56821;52.486;4.680;2023-04-03T00:17:05;31.69;30.02;33.82;;
69615;Laerm;56821;52.486;4.680;2023-04-03T00:17:16;31.57;29.80;33.42;;
69615;Laerm;56821;52.486;4.680;2023-04-03T00:17:26;32.47;30.15;36.89;;
69615;Laerm;56821;52.486;4.680;2023-04-03T00:17:36;32.45;30.51;35.16;;
69615;Laerm;56821;52.486;4.680;2023-04-03T00:17:46;32.93;31.22;34.74;;
69615;Laerm;56821;52.486;4.680;2023-04-03T00:17:57;33.26;31.11;35.14;;
69615;Laerm;56821;52.486;4.680;2023-04-03T00:18:07;32.83;31.01;35.14;;
69615;Laerm;56821;52.486;4.680;2023-04-03T00:18:17;33.13;30.79;35.57;;
69615;Laerm;56821;52.486;4.680;2023-04-03T00:18:28;34.16;30.82;39.02;;
69615;Laerm;56821;52.486;4.680;2023-04-03T00:18:38;32.66;30.93;34.35;;
69615;Laerm;56821;52.486;4.680;2023-04-03T00:18:49;32.53;30.15;35.45;;
69615;Laerm;56821;52.486;4.680;2023-04-03T00:18:59;32.69;30.43;35.24;;
69615;Laerm;56821;52.486;4.680;2023-04-03T00:19:10;32.87;30.62;46.88;;
69615;Laerm;56821;52.486;4.680;2023-04-03T00:19:21;31.96;29.81;34.78;;
69615;Laerm;56821;52.486;4.680;2023-04-03T00:19:32;33.48;30.22;35.19;;
69615;Laerm;56821;52.486;4.680;2023-04-03T00:19:42;33.56;31.21;37.15;;
69615;Laerm;56821;52.486;4.680;2023-04-03T00:19:52;35.56;33.52;37.65;;
69615;Laerm;56821;52.486;4.680;2023-04-03T00:20:03;34.53;32.36;37.03;;
69615;Laerm;56821;52.486;4.680;2023-04-03T00:20:13;33.94;31.99;36.03;;
69615;Laerm;56821;52.486;4.680;2023-04-03T00:20:23;34.91;32.48;39.63;;
69615;Laerm;56821;52.486;4.680;2023-04-03T00:20:34;34.00;31.59;41.82;;
69615;Laerm;56821;52.486;4.680;2023-04-03T00:20:44;34.96;32.01;36.97;;
69615;Laerm;56821;52.486;4.680;2023-04-03T00:20:54;35.00;32.12;38.22;;
69615;Laerm;56821;52.486;4.680;2023-04-03T00:21:05;32.95;30.81;35.63;;
69615;Laerm;56821;52.486;4.680;2023-04-03T00:21:15;33.05;31.25;35.96;;
69615;Laerm;56821;52.486;4.680;2023-04-03T00:21:26;32.10;30.54;34.86;;
69615;Laerm;56821;52.486;4.680;2023-04-03T00:21:36;32.37;30.04;33.85;;
69615;Laerm;56821;52.486;4.680;2023-04-03T00:21:46;33.19;31.57;34.72;;
69615;Laerm;56821;52.486;4.680;2023-04-03T00:21:56;33.56;31.92;35.27;;
69615;Laerm;56821;52.486;4.680;2023-04-03T00:22:07;33.94;32.11;37.04;;
69615;Laerm;56821;52.486;4.680;2023-04-03T00:22:17;32.85;30.99;35.33;;
69615;Laerm;56821;52.486;4.680;2023-04-03T00:22:27;33.12;30.47;36.06;;
69615;Laerm;56821;52.486;4.680;2023-04-03T00:22:38;31.80;29.50;33.66;;
69615;Laerm;56821;52.486;4.680;2023-04-03T00:22:48;31.58;29.54;33.37;;
69615;Laerm;56821;52.486;4.680;2023-04-03T00:22:59;31.69;29.54;33.61;;
69615;Laerm;56821;52.486;4.680;2023-04-03T00:23:10;31.39;29.47;34.64;;
69615;Laerm;56821;52.486;4.680;2023-04-03T00:23:20;32.74;29.49;42.58;;
69615;Laerm;56821;52.486;4.680;2023-04-03T00:23:30;31.10;29.50;32.83;;
69615;Laerm;56821;52.486;4.680;2023-04-03T00:23:41;32.15;29.17;43.41;;
69615;Laerm;56821;52.486;4.680;2023-04-03T00:23:51;31.24;29.09;33.16;;
69615;Laerm;56821;52.486;4.680;2023-04-03T00:24:01;31.31;28.78;33.61;;
69615;Laerm;56821;52.486;4.680;2023-04-03T00:24:12;33.40;31.25;36.32;;
69615;Laerm;56821;52.486;4.680;2023-04-03T00:24:22;33.78;31.93;35.21;;
69615;Laerm;56821;52.486;4.680;2023-04-03T00:24:32;34.63;31.73;38.39;;
69615;Laerm;56821;52.486;4.680;2023-04-03T00:24:42;33.30;30.25;38.89;;
69615;Laerm;56821;52.486;4.680;2023-04-03T00:24:53;32.37;30.10;34.47;;
69615;Laerm;56821;52.486;4.680;2023-04-03T00:25:03;31.62;29.62;33.83;;
69615;Laerm;56821;52.486;4.680;2023-04-03T00:25:13;31.77;29.93;34.48;;
69615;Laerm;56821;52.486;4.680;2023-04-03T00:25:24;34.97;31.49;37.23;;
69615;Laerm;56821;52.486;4.680;2023-04-03T00:25:34;36.39;33.78;38.60;;
69615;Laerm;56821;52.486;4.680;2023-04-03T00:25:45;36.11;30.59;39.68;;
69615;Laerm;56821;52.486;4.680;2023-04-03T00:25:55;31.59;29.78;37.58;;
69615;Laerm;56821;52.486;4.680;2023-04-03T00:26:06;31.27;29.50;33.01;;
69615;Laerm;56821;52.486;4.680;2023-04-03T00:26:16;31.60;29.65;33.51;;
69615;Laerm;56821;52.486;4.680;2023-04-03T00:26:26;31.74;30.17;33.85;;
69615;Laerm;56821;52.486;4.680;2023-04-03T00:26:37;32.37;30.59;36.17;;
69615;Laerm;56821;52.486;4.680;2023-04-03T00:26:47;31.53;29.14;34.15;;
69615;Laerm;56821;52.486;4.680;2023-04-03T00:26:57;32.77;30.83;36.12;;
69615;Laerm;56821;52.486;4.680;2023-04-03T00:27:07;35.69;32.40;40.00;;
69615;Laerm;56821;52.486;4.680;2023-04-03T00:27:17;36.44;33.85;38.60;;
69615;Laerm;56821;52.486;4.680;2023-04-03T00:27:28;34.07;31.77;36.86;;
69615;Laerm;56821;52.486;4.680;2023-04-03T00:27:38;32.36;30.51;34.05;;
69615;Laerm;56821;52.486;4.680;2023-04-03T00:27:49;33.46;31.15;35.08;;
69615;Laerm;56821;52.486;4.680;2023-04-03T00:27:59;33.73;31.93;36.17;;
69615;Laerm;56821;52.486;4.680;2023-04-03T00:28:10;33.62;31.17;38.21;;
69615;Laerm;56821;52.486;4.680;2023-04-03T00:28:20;32.64;30.46;34.80;;
69615;Laerm;56821;52.486;4.680;2023-04-03T00:28:30;34.68;31.52;38.96;;
69615;Laerm;56821;52.486;4.680;2023-04-03T00:28:41;37.05;34.02;39.93;;
69615;Laerm;56821;52.486;4.680;2023-04-03T00:28:51;38.53;33.78;40.99;;
69615;Laerm;56821;52.486;4.680;2023-04-03T00:29:01;34.30;32.63;36.74;;
69615;Laerm;56821;52.486;4.680;2023-04-03T00:29:11;35.88;33.51;39.11;;
69615;Laerm;56821;52.486;4.680;2023-04-03T00:29:21;36.09;32.99;38.66;;
69615;Laerm;56821;52.486;4.680;2023-04-03T00:29:32;36.02;32.84;39.01;;
69615;Laerm;56821;52.486;4.680;2023-04-03T00:29:42;36.04;33.08;40.64;;
69615;Laerm;56821;52.486;4.680;2023-04-03T00:29:52;33.82;31.45;39.12;;
69615;Laerm;56821;52.486;4.680;2023-04-03T00:30:02;33.55;30.73;37.17;;
69615;Laerm;56821;52.486;4.680;2023-04-03T00:30:14;33.04;31.18;35.42;;
69615;Laerm;56821;52.486;4.680;2023-04-03T00:30:25;33.37;30.92;35.72;;
69615;Laerm;56821;52.486;4.680;2023-04-03T00:30:35;34.62;32.00;39.66;;
69615;Laerm;56821;52.486;4.680;2023-04-03T00:30:45;33.43;30.91;36.27;;
69615;Laerm;56821;52.486;4.680;2023-04-03T00:30:56;32.87;30.60;36.74;;
69615;Laerm;56821;52.486;4.680;2023-04-03T00:31:06;33.96;31.67;37.14;;
69615;Laerm;56821;52.486;4.680;2023-04-03T00:31:16;34.16;32.14;36.33;;
69615;Laerm;56821;52.486;4.680;2023-04-03T00:31:26;33.11;31.28;34.95;;
69615;Laerm;56821;52.486;4.680;2023-04-03T00:31:37;33.84;31.05;36.88;;
69615;Laerm;56821;52.486;4.680;2023-04-03T00:31:47;33.48;30.77;36.06;;
69615;Laerm;56821;52.486;4.680;2023-04-03T00:31:57;31.69;29.97;33.29;;
69615;Laerm;56821;52.486;4.680;2023-04-03T00:32:07;31.88;29.84;33.51;;
69615;Laerm;56821;52.486;4.680;2023-04-03T00:32:18;31.31;29.31;33.96;;
69615;Laerm;56821;52.486;4.680;2023-04-03T00:32:28;31.32;29.94;33.04;;
69615;Laerm;56821;52.486;4.680;2023-04-03T00:32:38;31.24;29.92;32.66;;
69615;Laerm;56821;52.486;4.680;2023-04-03T00:32:49;31.17;29.17;33.24;;
69615;Laerm;56821;52.486;4.680;2023-04-03T00:33:00;32.49;30.70;34.83;;
69615;Laerm;56821;52.486;4.680;2023-04-03T00:33:12;32.54;30.80;34.01;;
69615;Laerm;56821;52.486;4.680;2023-04-03T00:33:22;33.68;30.87;35.75;;
69615;Laerm;56821;52.486;4.680;2023-04-03T00:33:34;32.68;30.14;36.23;;
69615;Laerm;56821;52.486;4.680;2023-04-03T00:33:44;31.49;29.48;33.66;;
69615;Laerm;56821;52.486;4.680;2023-04-03T00:33:55;31.66;29.85;35.43;;
69615;Laerm;56821;52.486;4.680;2023-04-03T00:34:05;31.52;29.60;34.12;;
69615;Laerm;56821;52.486;4.680;2023-04-03T00:34:15;32.36;30.38;38.14;;
69615;Laerm;56821;52.486;4.680;2023-04-03T00:34:26;31.89;29.81;35.51;;
69615;Laerm;56821;52.486;4.680;2023-04-03T00:34:36;32.04;30.12;35.05;;
69615;Laerm;56821;52.486;4.680;2023-04-03T00:34:46;31.75;30.22;34.15;;
69615;Laerm;56821;52.486;4.680;2023-04-03T00:34:56;31.43;30.04;33.10;;
69615;Laerm;56821;52.486;4.680;2023-04-03T00:35:07;32.17;30.49;34.79;;
69615;Laerm;56821;52.486;4.680;2023-04-03T00:35:18;33.78;30.83;36.20;;
69615;Laerm;56821;52.486;4.680;2023-04-03T00:35:28;35.56;33.11;37.45;;
69615;Laerm;56821;52.486;4.680;2023-04-03T00:35:39;33.46;30.70;37.07;;
69615;Laerm;56821;52.486;4.680;2023-04-03T00:35:50;31.59;29.95;33.62;;
69615;Laerm;56821;52.486;4.680;2023-04-03T00:36:04;31.76;30.38;33.53;;
69615;Laerm;56821;52.486;4.680;2023-04-03T00:36:15;31.51;29.26;33.24;;
69615;Laerm;56821;52.486;4.680;2023-04-03T00:36:25;31.67;29.84;33.36;;
69615;Laerm;56821;52.486;4.680;2023-04-03T00:36:36;32.25;30.68;34.51;;
69615;Laerm;56821;52.486;4.680;2023-04-03T00:36:46;31.78;30.38;33.44;;
69615;Laerm;56821;52.486;4.680;2023-04-03T00:36:56;31.94;30.41;33.24;;
69615;Laerm;56821;52.486;4.680;2023-04-03T00:37:07;33.00;30.75;35.64;;
69615;Laerm;56821;52.486;4.680;2023-04-03T00:37:17;32.11;29.91;34.10;;
69615;Laerm;56821;52.486;4.680;2023-04-03T00:37:27;31.67;30.21;35.07;;
69615;Laerm;56821;52.486;4.680;2023-04-03T00:37:37;31.20;29.63;33.28;;
69615;Laerm;56821;52.486;4.680;2023-04-03T00:37:48;30.56;28.97;34.91;;
69615;Laerm;56821;52.486;4.680;2023-04-03T00:37:58;30.72;29.30;32.64;;
69615;Laerm;56821;52.486;4.680;2023-04-03T00:38:08;31.64;29.21;33.93;;
69615;Laerm;56821;52.486;4.680;2023-04-03T00:38:18;31.68;29.91;33.62;;
69615;Laerm;56821;52.486;4.680;2023-04-03T00:38:29;30.59;28.87;32.28;;
69615;Laerm;56821;52.486;4.680;2023-04-03T00:38:39;30.75;28.93;32.02;;
69615;Laerm;56821;52.486;4.680;2023-04-03T00:38:49;30.83;29.33;32.59;;
69615;Laerm;56821;52.486;4.680;2023-04-03T00:38:59;31.67;29.71;33.92;;
69615;Laerm;56821;52.486;4.680;2023-04-03T00:39:10;32.26;30.30;34.11;;
69615;Laerm;56821;52.486;4.680;2023-04-03T00:39:20;32.74;30.85;34.60;;
69615;Laerm;56821;52.486;4.680;2023-04-03T00:39:30;32.25;30.12;34.64;;
69615;Laerm;56821;52.486;4.680;2023-04-03T00:39:41;32.20;30.27;35.53;;
69615;Laerm;56821;52.486;4.680;2023-04-03T00:39:51;31.64;29.18;34.05;;
69615;Laerm;56821;52.486;4.680;2023-04-03T00:40:02;31.02;29.33;32.97;;
69615;Laerm;56821;52.486;4.680;2023-04-03T00:40:14;30.92;29.62;32.61;;
69615;Laerm;56821;52.486;4.680;2023-04-03T00:40:25;30.87;29.11;32.82;;
69615;Laerm;56821;52.486;4.680;2023-04-03T00:40:37;31.57;30.05;33.25;;
69615;Laerm;56821;52.486;4.680;2023-04-03T00:40:48;32.57;29.82;36.03;;
69615;Laerm;56821;52.486;4.680;2023-04-03T00:40:58;31.69;30.01;34.02;;
69615;Laerm;56821;52.486;4.680;2023-04-03T00:41:09;31.78;29.04;34.05;;
69615;Laerm;56821;52.486;4.680;2023-04-03T00:41:19;31.48;29.86;34.63;;
69615;Laerm;56821;52.486;4.680;2023-04-03T00:41:29;32.60;30.48;35.95;;
69615;Laerm;56821;52.486;4.680;2023-04-03T00:41:40;31.61;29.56;34.71;;
69615;Laerm;56821;52.486;4.680;2023-04-03T00:41:50;31.71;29.92;35.10;;
69615;Laerm;56821;52.486;4.680;2023-04-03T00:42:00;32.45;30.48;34.77;;
69615;Laerm;56821;52.486;4.680;2023-04-03T00:42:10;34.28;30.86;36.94;;
69615;Laerm;56821;52.486;4.680;2023-04-03T00:42:21;34.48;32.45;36.82;;
69615;Laerm;56821;52.486;4.680;2023-04-03T00:42:31;34.38;31.98;37.14;;
69615;Laerm;56821;52.486;4.680;2023-04-03T00:42:41;32.44;30.55;35.09;;
69615;Laerm;56821;52.486;4.680;2023-04-03T00:42:55;32.52;30.36;35.58;;
69615;Laerm;56821;52.486;4.680;2023-04-03T00:43:11;33.08;31.02;35.83;;
69615;Laerm;56821;52.486;4.680;2023-04-03T00:43:22;34.62;32.23;37.64;;
69615;Laerm;56821;52.486;4.680;2023-04-03T00:43:32;35.17;33.11;37.16;;
69615;Laerm;56821;52.486;4.680;2023-04-03T00:43:43;34.00;30.44;37.48;;
69615;Laerm;56821;52.486;4.680;2023-04-03T00:43:54;32.16;29.98;36.24;;
69615;Laerm;56821;52.486;4.680;2023-04-03T00:45:22;30.98;29.46;32.93;;
69615;Laerm;56821;52.486;4.680;2023-04-03T00:45:34;31.52;29.29;35.06;;
69615;Laerm;56821;52.486;4.680;2023-04-03T00:45:51;32.14;29.99;34.59;;
69615;Laerm;56821;52.486;4.680;2023-04-03T00:46:02;33.46;30.47;37.12;;
69615;Laerm;56821;52.486;4.680;2023-04-03T00:46:12;31.38;29.66;38.13;;
69615;Laerm;56821;52.486;4.680;2023-04-03T00:46:22;30.99;29.47;34.41;;
69615;Laerm;56821;52.486;4.680;2023-04-03T00:46:32;30.32;28.53;31.93;;
69615;Laerm;56821;52.486;4.680;2023-04-03T00:46:43;30.41;28.99;31.88;;
69615;Laerm;56821;52.486;4.680;2023-04-03T00:46:53;30.30;28.85;31.96;;
69615;Laerm;56821;52.486;4.680;2023-04-03T00:47:04;31.02;29.02;32.84;;
69615;Laerm;56821;52.486;4.680;2023-04-03T00:47:16;31.01;28.46;32.98;;
69615;Laerm;56821;52.486;4.680;2023-04-03T00:47:27;31.36;29.83;33.95;;
69615;Laerm;56821;52.486;4.680;2023-04-03T00:47:38;30.18;28.77;31.67;;
69615;Laerm;56821;52.486;4.680;2023-04-03T00:47:49;32.40;29.10;35.40;;
69615;Laerm;56821;52.486;4.680;2023-04-03T00:48:00;32.11;30.48;34.31;;
69615;Laerm;56821;52.486;4.680;2023-04-03T00:48:12;34.34;30.79;38.91;;
69615;Laerm;56821;52.486;4.680;2023-04-03T00:48:42;31.26;29.12;35.09;;
69615;Laerm;56821;52.486;4.680;2023-04-03T00:48:53;31.43;29.24;41.17;;
69615;Laerm;56821;52.486;4.680;2023-04-03T00:49:04;30.93;28.97;32.76;;
69615;Laerm;56821;52.486;4.680;2023-04-03T00:49:14;31.34;29.61;35.79;;
69615;Laerm;56821;52.486;4.680;2023-04-03T00:49:24;31.77;29.98;33.70;;
69615;Laerm;56821;52.486;4.680;2023-04-03T00:49:35;30.49;28.97;32.28;;
69615;Laerm;56821;52.486;4.680;2023-04-03T00:49:46;30.79;29.22;32.82;;
69615;Laerm;56821;52.486;4.680;2023-04-03T00:49:56;32.81;30.70;35.76;;
69615;Laerm;56821;52.486;4.680;2023-04-03T00:50:07;31.28;29.62;34.83;;
69615;Laerm;56821;52.486;4.680;2023-04-03T00:50:17;31.55;29.64;33.63;;
69615;Laerm;56821;52.486;4.680;2023-04-03T00:50:28;31.18;29.23;35.13;;
69615;Laerm;56821;52.486;4.680;2023-04-03T00:50:40;32.03;29.10;34.58;;
69615;Laerm;56821;52.486;4.680;2023-04-03T00:50:51;31.91;29.67;34.42;;
69615;Laerm;56821;52.486;4.680;2023-04-03T00:51:02;30.65;28.93;32.31;;
69615;Laerm;56821;52.486;4.680;2023-04-03T00:51:14;30.61;28.87;32.21;;
69615;Laerm;56821;52.486;4.680;2023-04-03T00:51:27;30.66;28.98;32.05;;
69615;Laerm;56821;52.486;4.680;2023-04-03T00:51:37;32.05;29.98;33.81;;
69615;Laerm;56821;52.486;4.680;2023-04-03T00:51:47;31.90;30.18;35.25;;
69615;Laerm;56821;52.486;4.680;2023-04-03T00:51:58;31.98;30.31;34.09;;
69615;Laerm;56821;52.486;4.680;2023-04-03T00:52:10;32.67;30.68;35.19;;
69615;Laerm;56821;52.486;4.680;2023-04-03T00:52:23;31.19;29.66;33.16;;
69615;Laerm;56821;52.486;4.680;2023-04-03T00:52:35;30.84;29.48;32.27;;
69615;Laerm;56821;52.486;4.680;2023-04-03T00:52:47;31.14;29.45;32.89;;
69615;Laerm;56821;52.486;4.680;2023-04-03T00:52:59;30.79;29.13;32.45;;
69615;Laerm;56821;52.486;4.680;2023-04-03T00:53:11;30.49;28.28;33.11;;
69615;Laerm;56821;52.486;4.680;2023-04-03T00:53:23;30.65;29.23;35.99;;
69615;Laerm;56821;52.486;4.680;2023-04-03T00:53:37;30.94;29.44;33.41;;
69615;Laerm;56821;52.486;4.680;2023-04-03T00:53:49;32.10;29.91;35.08;;
69615;Laerm;56821;52.486;4.680;2023-04-03T00:54:01;35.85;32.63;39.13;;
69615;Laerm;56821;52.486;4.680;2023-04-03T00:54:12;34.20;30.73;39.09;;
69615;Laerm;56821;52.486;4.680;2023-04-03T00:54:22;32.47;30.62;34.29;;
69615;Laerm;56821;52.486;4.680;2023-04-03T00:54:33;33.36;31.42;35.41;;
69615;Laerm;56821;52.486;4.680;2023-04-03T00:54:45;33.87;31.95;37.32;;
69615;Laerm;56821;52.486;4.680;2023-04-03T00:54:57;33.98;32.44;36.38;;
69615;Laerm;56821;52.486;4.680;2023-04-03T00:55:08;33.83;31.33;37.15;;
69615;Laerm;56821;52.486;4.680;2023-04-03T00:55:19;33.90;31.23;37.18;;
69615;Laerm;56821;52.486;4.680;2023-04-03T00:55:30;34.40;31.47;37.34;;
69615;Laerm;56821;52.486;4.680;2023-04-03T00:55:41;33.50;29.27;38.29;;
69615;Laerm;56821;52.486;4.680;2023-04-03T00:55:53;31.67;29.60;34.05;;
69615;Laerm;56821;52.486;4.680;2023-04-03T00:56:05;31.47;29.32;33.58;;
69615;Laerm;56821;52.486;4.680;2023-04-03T00:56:16;30.88;29.42;32.57;;
69615;Laerm;56821;52.486;4.680;2023-04-03T00:56:27;31.24;29.28;33.10;;
69615;Laerm;56821;52.486;4.680;2023-04-03T00:56:39;32.70;30.57;35.89;;
69615;Laerm;56821;52.486;4.680;2023-04-03T00:56:51;32.72;30.42;35.61;;
69615;Laerm;56821;52.486;4.680;2023-04-03T00:57:01;32.51;30.43;34.55;;
69615;Laerm;56821;52.486;4.680;2023-04-03T00:57:12;31.46;30.00;33.92;;
69615;Laerm;56821;52.486;4.680;2023-04-03T00:57:24;31.66;29.60;33.92;;
69615;Laerm;56821;52.486;4.680;2023-04-03T00:57:34;31.95;30.15;33.92;;
69615;Laerm;56821;52.486;4.680;2023-04-03T00:57:45;31.88;30.22;33.90;;
69615;Laerm;56821;52.486;4.680;2023-04-03T00:57:55;32.36;30.30;34.60;;
69615;Laerm;56821;52.486;4.680;2023-04-03T00:58:06;31.81;30.18;33.60;;
69615;Laerm;56821;52.486;4.680;2023-04-03T00:58:17;33.01;30.65;36.62;;
69615;Laerm;56821;52.486;4.680;2023-04-03T00:58:40;33.51;30.80;37.05;;
69615;Laerm;56821;52.486;4.680;2023-04-03T00:58:52;32.09;29.75;34.95;;
69615;Laerm;56821;52.486;4.680;2023-04-03T00:59:06;33.19;31.13;35.11;;
69615;Laerm;56821;52.486;4.680;2023-04-03T00:59:19;32.79;29.15;36.31;;
69615;Laerm;56821;52.486;4.680;2023-04-03T00:59:34;30.85;28.86;34.84;;
69615;Laerm;56821;52.486;4.680;2023-04-03T00:59:46;30.56;29.01;33.20;;
69615;Laerm;56821;52.486;4.680;2023-04-03T00:59:59;30.68;29.23;33.09;;
69615;Laerm;56821;52.486;4.680;2023-04-03T01:00:13;30.98;29.36;33.39;;
69615;Laerm;56821;52.486;4.680;2023-04-03T01:00:24;30.88;28.81;34.90;;
69615;Laerm;56821;52.486;4.680;2023-04-03T01:00:36;31.18;29.31;34.80;;
69615;Laerm;56821;52.486;4.680;2023-04-03T01:00:50;32.35;29.94;36.69;;
69615;Laerm;56821;52.486;4.680;2023-04-03T01:01:06;31.66;29.18;34.30;;
69615;Laerm;56821;52.486;4.680;2023-04-03T01:01:19;32.40;30.04;34.48;;
69615;Laerm;56821;52.486;4.680;2023-04-03T01:01:31;34.80;31.53;37.48;;
69615;Laerm;56821;52.486;4.680;2023-04-03T01:01:41;37.13;34.97;39.44;;
69615;Laerm;56821;52.486;4.680;2023-04-03T01:01:55;36.17;31.58;39.74;;